createdAt,value
2022-09-24T00:00:24.824Z,12.10
2022-09-24T00:04:09.728Z,12.00
2022-09-24T00:07:51.704Z,12.00
2022-09-24T00:11:33.577Z,12.00
2022-09-24T00:15:15.441Z,11.90
2022-09-24T00:18:59.411Z,11.80
2022-09-24T00:22:41.196Z,11.80
2022-09-24T00:26:42.514Z,11.80
2022-09-24T00:30:24.307Z,11.70
2022-09-24T00:34:06.229Z,11.70
2022-09-24T00:37:48.053Z,11.60
2022-09-24T00:41:35.897Z,11.60
2022-09-24T00:45:17.699Z,11.50
2022-09-24T00:49:19.225Z,11.50
2022-09-24T00:53:06.455Z,11.40
2022-09-24T00:56:49.091Z,11.30
2022-09-24T01:00:31.814Z,11.30
2022-09-24T01:04:15.369Z,11.30
2022-09-24T01:07:58.158Z,11.20
2022-09-24T01:11:59.415Z,11.20
2022-09-24T01:15:56.830Z,11.10
2022-09-24T01:19:57.098Z,11.10
2022-09-24T01:23:48.741Z,11.00
2022-09-24T01:28:04.912Z,10.90
2022-09-24T01:31:52.038Z,10.90
2022-09-24T01:35:39.957Z,10.90
2022-09-24T01:39:22.989Z,10.80
2022-09-24T01:43:06.928Z,10.80
2022-09-24T01:46:50.186Z,10.70
2022-09-24T01:50:42.580Z,10.70
2022-09-24T01:54:35.708Z,10.60
2022-09-24T01:58:24.629Z,10.60
2022-09-24T02:02:29.150Z,10.50
2022-09-24T02:06:23.195Z,10.40
2022-09-24T02:10:05.849Z,10.30
2022-09-24T02:14:20.349Z,10.30
2022-09-24T02:18:08.097Z,10.30
2022-09-24T02:21:51.216Z,10.20
2022-09-24T02:25:50.635Z,10.10
2022-09-24T02:29:32.456Z,10.10
2022-09-24T02:33:33.741Z,10.00
2022-09-24T02:37:16.624Z,10.00
2022-09-24T02:40:58.894Z,10.00
2022-09-24T02:44:40.779Z,9.90
2022-09-24T02:48:22.662Z,9.90
2022-09-24T02:52:04.796Z,9.80
2022-09-24T02:55:46.564Z,9.80
2022-09-24T02:59:28.389Z,9.70
2022-09-24T03:03:10.208Z,9.70
2022-09-24T03:06:52.068Z,9.70
2022-09-24T03:10:35.051Z,9.60
2022-09-24T03:14:16.797Z,9.60
2022-09-24T03:17:58.587Z,9.50
2022-09-24T03:21:40.361Z,9.50
2022-09-24T03:25:22.413Z,9.50
2022-09-24T03:29:04.305Z,9.40
2022-09-24T03:32:48.085Z,9.30
2022-09-24T03:36:29.939Z,9.30
2022-09-24T03:40:12.024Z,9.30
2022-09-24T03:43:54.021Z,9.20
2022-09-24T03:47:35.785Z,9.20
2022-09-24T03:51:19.971Z,9.10
2022-09-24T03:55:01.851Z,9.10
2022-09-24T03:58:48.029Z,9.00
2022-09-24T04:02:31.146Z,9.00
2022-09-24T04:06:12.971Z,8.90
2022-09-24T04:09:54.794Z,8.80
2022-09-24T04:13:36.673Z,8.80
2022-09-24T04:17:18.502Z,8.90
2022-09-24T04:21:00.698Z,8.80
2022-09-24T04:24:42.489Z,8.70
2022-09-24T04:28:25.297Z,8.60
2022-09-24T04:32:07.079Z,8.60
2022-09-24T04:35:48.849Z,8.60
2022-09-24T04:39:30.625Z,8.60
2022-09-24T04:43:13.330Z,8.50
2022-09-24T04:46:55.856Z,8.50
2022-09-24T04:50:43.280Z,8.40
2022-09-24T04:54:29.980Z,8.40
2022-09-24T04:58:11.754Z,8.30
2022-09-24T05:01:54.528Z,8.20
2022-09-24T05:05:36.761Z,8.10
2022-09-24T05:09:18.682Z,8.10
2022-09-24T05:13:01.139Z,8.00
2022-09-24T05:16:42.878Z,8.00
2022-09-24T05:20:25.139Z,8.00
2022-09-24T05:24:07.092Z,8.00
2022-09-24T05:27:51.115Z,8.00
2022-09-24T05:31:33.035Z,7.90
2022-09-24T05:35:14.920Z,7.90
2022-09-24T05:38:56.757Z,7.90
2022-09-24T05:42:39.527Z,7.90
2022-09-24T05:46:21.514Z,7.80
2022-09-24T05:50:03.608Z,7.80
2022-09-24T05:53:45.423Z,7.70
2022-09-24T05:57:27.206Z,7.70
2022-09-24T06:01:09.028Z,7.70
2022-09-24T06:04:50.809Z,7.60
2022-09-24T06:08:35.454Z,7.60
2022-09-24T06:12:17.662Z,7.60
2022-09-24T06:16:04.278Z,7.60
2022-09-24T06:19:47.352Z,7.60
2022-09-24T06:23:29.775Z,7.50
2022-09-24T06:27:11.709Z,7.50
2022-09-24T06:30:54.046Z,7.50
2022-09-24T06:34:35.877Z,7.50
2022-09-24T06:38:19.343Z,7.60
2022-09-24T06:42:01.084Z,7.50
2022-09-24T06:45:43.104Z,7.50
2022-09-24T06:49:25.782Z,7.50
2022-09-24T06:53:09.893Z,7.50
2022-09-24T06:56:52.659Z,7.50
2022-09-24T07:00:36.114Z,7.50
2022-09-24T07:04:18.180Z,7.50
2022-09-24T07:08:00.329Z,7.50
2022-09-24T07:11:42.472Z,7.60
2022-09-24T07:15:24.321Z,7.50
2022-09-24T07:19:06.133Z,7.60
2022-09-24T07:22:47.931Z,7.60
2022-09-24T07:26:30.205Z,7.60
2022-09-24T07:30:12.928Z,7.70
2022-09-24T07:33:54.731Z,7.80
2022-09-24T07:37:36.532Z,7.90
2022-09-24T07:41:18.838Z,7.90
2022-09-24T07:45:01.018Z,8.10
2022-09-24T07:48:42.931Z,8.10
2022-09-24T07:52:24.672Z,8.30
2022-09-24T07:56:06.685Z,8.40
2022-09-24T07:59:48.757Z,8.50
2022-09-24T08:03:31.502Z,8.70
2022-09-24T08:07:13.758Z,8.90
2022-09-24T08:10:55.615Z,9.10
2022-09-24T08:14:37.408Z,9.40
2022-09-24T08:18:19.227Z,9.60
2022-09-24T08:22:01.123Z,9.90
2022-09-24T08:25:42.956Z,10.20
2022-09-24T08:29:24.749Z,10.60
2022-09-24T08:33:06.765Z,10.90
2022-09-24T08:36:50.342Z,11.00
2022-09-24T08:40:39.851Z,11.10
2022-09-24T08:45:03.989Z,11.30
2022-09-24T08:48:51.475Z,11.60
2022-09-24T08:52:59.583Z,11.80
2022-09-24T08:56:45.516Z,12.10
2022-09-24T09:00:31.846Z,12.60
2022-09-24T09:04:52.202Z,13.00
2022-09-24T09:09:06.774Z,13.40
2022-09-24T09:12:55.140Z,13.60
2022-09-24T09:16:48.976Z,13.80
2022-09-24T09:20:36.089Z,14.00
2022-09-24T09:24:39.972Z,14.10
2022-09-24T09:28:21.809Z,14.20
2022-09-24T09:32:30.523Z,14.50
2022-09-24T09:36:35.776Z,14.80
2022-09-24T09:40:40.491Z,15.00
2022-09-24T09:44:26.411Z,15.50
2022-09-24T09:48:14.170Z,16.30
2022-09-24T09:52:00.762Z,17.30
2022-09-24T09:55:42.564Z,18.50
2022-09-24T09:59:34.127Z,19.60
2022-09-24T10:03:30.173Z,20.70
2022-09-24T10:07:15.192Z,21.70
2022-09-24T10:10:59.979Z,22.70
2022-09-24T10:14:41.894Z,23.50
2022-09-24T10:18:35.683Z,24.00
2022-09-24T10:22:25.355Z,24.40
2022-09-24T10:26:08.364Z,24.50
2022-09-24T10:30:13.437Z,24.40
2022-09-24T10:33:57.293Z,24.20
2022-09-24T10:37:49.867Z,24.10
2022-09-24T10:41:34.764Z,24.30
2022-09-24T10:45:16.559Z,24.60
2022-09-24T10:49:36.677Z,25.00
2022-09-24T10:53:27.909Z,25.60
2022-09-24T10:57:25.487Z,26.10
2022-09-24T11:01:16.645Z,26.30
2022-09-24T11:05:17.139Z,26.40
2022-09-24T11:09:16.528Z,26.90
2022-09-24T11:13:26.016Z,27.70
2022-09-24T11:17:19.113Z,28.20
2022-09-24T11:21:16.167Z,28.70
2022-09-24T11:25:03.899Z,29.30
2022-09-24T11:29:22.693Z,29.80
2022-09-24T11:33:04.423Z,30.20
2022-09-24T11:36:58.578Z,30.50
2022-09-24T11:41:15.444Z,31.00
2022-09-24T11:45:27.229Z,31.50
2022-09-24T11:49:24.412Z,32.20
2022-09-24T11:53:15.248Z,32.60
2022-09-24T11:57:05.416Z,33.00
2022-09-24T12:00:57.816Z,33.30
2022-09-24T12:04:54.585Z,33.70
2022-09-24T12:08:45.049Z,33.90
2022-09-24T12:12:38.760Z,33.90
2022-09-24T12:16:26.388Z,34.10
2022-09-24T12:20:30.419Z,34.30
2022-09-24T12:24:23.891Z,34.30
2022-09-24T12:28:06.401Z,34.30
2022-09-24T12:32:40.645Z,34.30
2022-09-24T12:36:37.525Z,34.50
2022-09-24T12:40:33.590Z,34.80
2022-09-24T12:44:27.910Z,34.80
2022-09-24T12:48:16.135Z,34.90
2022-09-24T12:52:01.624Z,35.10
2022-09-24T12:55:45.614Z,35.10
2022-09-24T12:59:28.614Z,35.10
2022-09-24T13:03:34.054Z,34.60
2022-09-24T13:07:40.804Z,34.30
2022-09-24T13:11:30.536Z,34.30
2022-09-24T13:15:39.909Z,34.50
2022-09-24T13:19:23.779Z,34.80
2022-09-24T13:23:31.882Z,35.10
2022-09-24T13:27:21.853Z,35.00
2022-09-24T13:31:21.586Z,34.00
2022-09-24T13:35:09.538Z,32.80
2022-09-24T13:39:24.710Z,31.90
2022-09-24T13:43:18.570Z,31.20
2022-09-24T13:47:15.610Z,30.90
2022-09-24T13:50:57.434Z,30.70
2022-09-24T13:54:48.766Z,30.20
2022-09-24T13:58:41.991Z,30.30
2022-09-24T14:02:26.813Z,31.30
2022-09-24T14:06:14.413Z,31.80
2022-09-24T14:10:13.110Z,31.40
2022-09-24T14:13:56.405Z,30.40
2022-09-24T14:17:40.434Z,29.40
2022-09-24T14:21:32.036Z,28.60
2022-09-24T14:25:21.870Z,27.80
2022-09-24T14:29:16.415Z,28.20
2022-09-24T14:33:01.354Z,29.50
2022-09-24T14:36:43.216Z,30.80
2022-09-24T14:40:26.630Z,31.20
2022-09-24T14:44:26.065Z,31.30
2022-09-24T14:48:28.641Z,30.90
2022-09-24T14:52:31.318Z,30.10
2022-09-24T14:56:20.685Z,29.80
2022-09-24T15:00:02.649Z,29.20
2022-09-24T15:03:48.955Z,28.40
2022-09-24T15:07:31.517Z,27.50
2022-09-24T15:11:18.133Z,26.80
2022-09-24T15:15:02.659Z,26.10
2022-09-24T15:18:44.497Z,25.60
2022-09-24T15:22:28.139Z,25.20
2022-09-24T15:26:09.991Z,24.70
2022-09-24T15:29:51.925Z,24.40
2022-09-24T15:33:33.776Z,24.50
2022-09-24T15:37:19.902Z,25.40
2022-09-24T15:41:01.598Z,26.20
2022-09-24T15:44:45.089Z,26.90
2022-09-24T15:48:26.867Z,27.50
2022-09-24T15:52:25.112Z,27.70
2022-09-24T15:56:07.683Z,27.40
2022-09-24T15:59:50.251Z,26.80
2022-09-24T16:03:33.225Z,26.00
2022-09-24T16:07:15.127Z,25.30
2022-09-24T16:10:56.880Z,24.80
2022-09-24T16:14:38.659Z,24.40
2022-09-24T16:18:22.263Z,24.00
2022-09-24T16:22:04.837Z,23.70
2022-09-24T16:25:57.413Z,23.40
2022-09-24T16:29:39.205Z,23.20
2022-09-24T16:33:21.736Z,23.00
2022-09-24T16:37:03.503Z,22.90
2022-09-24T16:40:45.542Z,22.90
2022-09-24T16:44:27.420Z,22.80
2022-09-24T16:48:11.543Z,22.80
2022-09-24T16:51:53.377Z,22.70
2022-09-24T16:55:35.212Z,22.80
2022-09-24T16:59:17.016Z,22.80
2022-09-24T17:02:59.676Z,22.70
2022-09-24T17:06:44.584Z,22.60
2022-09-24T17:10:26.421Z,22.40
2022-09-24T17:14:14.773Z,22.30
2022-09-24T17:17:56.845Z,22.20
2022-09-24T17:21:40.940Z,22.00
2022-09-24T17:25:22.728Z,21.80
2022-09-24T17:29:04.513Z,21.60
2022-09-24T17:32:46.275Z,21.50
2022-09-24T17:36:29.609Z,21.40
2022-09-24T17:40:11.529Z,21.40
2022-09-24T17:43:53.359Z,21.30
2022-09-24T17:47:55.080Z,21.20
2022-09-24T17:51:37.652Z,21.10
2022-09-24T17:55:19.411Z,21.00
2022-09-24T17:59:01.262Z,20.90
2022-09-24T18:02:43.081Z,20.80
2022-09-24T18:06:31.950Z,20.70
2022-09-24T18:10:17.249Z,20.60
2022-09-24T18:14:01.055Z,20.60
2022-09-24T18:17:42.871Z,20.50
2022-09-24T18:21:25.005Z,20.40
2022-09-24T18:25:07.558Z,20.30
2022-09-24T18:28:54.890Z,20.30
2022-09-24T18:32:37.087Z,20.20
2022-09-24T18:36:22.600Z,20.10
2022-09-24T18:40:05.934Z,20.00
2022-09-24T18:43:48.431Z,20.00
2022-09-24T18:47:30.617Z,19.90
2022-09-24T18:51:25.090Z,19.80
2022-09-24T18:55:07.721Z,19.70
2022-09-24T18:58:54.363Z,19.60
2022-09-24T19:02:36.146Z,19.40
2022-09-24T19:06:18.204Z,19.40
2022-09-24T19:10:00.040Z,19.30
2022-09-24T19:13:42.940Z,19.20
2022-09-24T19:17:25.540Z,19.10
2022-09-24T19:21:09.936Z,19.10
2022-09-24T19:24:51.717Z,19.00
2022-09-24T19:28:35.160Z,19.00
2022-09-24T19:32:16.934Z,18.90
2022-09-24T19:36:04.669Z,18.90
2022-09-24T19:39:46.538Z,18.80
2022-09-24T19:43:29.734Z,18.80
2022-09-24T19:47:11.549Z,18.70
2022-09-24T19:50:54.423Z,18.60
2022-09-24T19:54:36.416Z,18.50
2022-09-24T19:58:18.296Z,18.40
2022-09-24T20:02:00.527Z,18.30
2022-09-24T20:05:43.641Z,18.30
2022-09-24T20:09:25.398Z,18.20
2022-09-24T20:13:10.620Z,18.10
2022-09-24T20:16:52.410Z,18.00
2022-09-24T20:20:34.841Z,17.90
2022-09-24T20:24:16.650Z,17.80
2022-09-24T20:27:58.416Z,17.70
2022-09-24T20:31:51.215Z,17.60
2022-09-24T20:35:33.487Z,17.60
2022-09-24T20:39:15.492Z,17.50
2022-09-24T20:42:57.323Z,17.50
2022-09-24T20:46:39.349Z,17.40
2022-09-24T20:50:21.397Z,17.30
2022-09-24T20:54:03.302Z,17.30
2022-09-24T20:57:45.171Z,17.20
2022-09-24T21:01:27.225Z,17.10
2022-09-24T21:05:10.513Z,17.00
2022-09-24T21:08:52.915Z,16.90
2022-09-24T21:12:34.763Z,16.80
2022-09-24T21:16:19.799Z,16.80
2022-09-24T21:20:02.292Z,16.70
2022-09-24T21:23:46.219Z,16.60
2022-09-24T21:27:28.031Z,16.50
2022-09-24T21:31:10.117Z,16.50
2022-09-24T21:34:51.999Z,16.40
2022-09-24T21:38:34.452Z,16.30
2022-09-24T21:42:18.354Z,16.20
2022-09-24T21:46:02.242Z,16.10
2022-09-24T21:49:44.098Z,16.00
2022-09-24T21:53:25.900Z,15.90
2022-09-24T21:57:07.794Z,15.80
2022-09-24T22:00:49.641Z,15.70
2022-09-24T22:04:34.194Z,15.60
2022-09-24T22:08:16.714Z,15.50
2022-09-24T22:12:00.563Z,15.50
2022-09-24T22:15:43.756Z,15.40
2022-09-24T22:19:25.532Z,15.30
2022-09-24T22:23:07.397Z,15.20
2022-09-24T22:26:49.297Z,15.10
2022-09-24T22:30:31.310Z,15.10
2022-09-24T22:34:31.577Z,15.00
2022-09-24T22:38:15.789Z,15.00
2022-09-24T22:41:57.639Z,14.90
2022-09-24T22:45:39.524Z,14.80
2022-09-24T22:49:22.529Z,14.80
2022-09-24T22:53:04.387Z,14.70
2022-09-24T22:56:46.160Z,14.70
2022-09-24T23:00:27.922Z,14.60
2022-09-24T23:04:13.325Z,14.60
2022-09-24T23:07:55.905Z,14.60
2022-09-24T23:11:37.822Z,14.50
2022-09-24T23:15:19.684Z,14.50
2022-09-24T23:19:04.804Z,14.40
2022-09-24T23:22:46.557Z,14.40
2022-09-24T23:26:29.203Z,14.30
2022-09-24T23:30:11.362Z,14.30
2022-09-24T23:33:55.632Z,14.20
2022-09-24T23:37:37.506Z,14.10
2022-09-24T23:41:19.877Z,14.10
2022-09-24T23:45:02.206Z,14.00
2022-09-24T23:48:44.446Z,14.00
2022-09-24T23:52:26.253Z,13.90
2022-09-24T23:56:08.908Z,13.90
2022-09-24T23:59:50.865Z,13.90
